Time;durP1;ratioP1;P1;durP2;ratioP2;P2;SDS_P1;SDS_P2;PMS_P1;PMS_P2;Temp;Humidity;BMP_temperature;BMP_pressure;BME280_temperature;BME280_humidity;BME280_pressure;Samples;Min_cycle;Max_cycle;Signal;HPM_P1;HPM_P2
2023/08/15 00:01:20;;;;;;;15.02;10.77;;;;;;;27.24;50.74;101315.53;6145314;23;20103;-81
2023/08/15 00:03:55;;;;;;;11.38;10.13;;;;;;;27.40;50.49;101350.31;6084755;23;20021;-83
2023/08/15 00:06:28;;;;;;;15.18;10.73;;;;;;;27.39;50.51;101343.22;6148128;23;20309;-83
2023/08/15 00:08:59;;;;;;;15.80;9.70;;;;;;;27.35;50.90;101336.53;6144054;23;20342;-82
2023/08/15 00:11:26;;;;;;;11.80;10.40;;;;;;;27.27;50.64;101321.34;6140652;23;20203;-80
2023/08/15 00:13:55;;;;;;;14.23;10.63;;;;;;;27.43;50.35;101344.44;6147251;23;20029;-81
2023/08/15 00:16:23;;;;;;;23.27;9.70;;;;;;;27.37;50.51;101339.88;6143167;23;20535;-82
2023/08/15 00:18:51;;;;;;;11.55;9.02;;;;;;;27.18;50.42;101311.78;6161053;23;20037;-83
2023/08/15 00:21:18;;;;;;;14.55;10.05;;;;;;;26.42;50.59;101190.56;6170654;23;20476;-82
2023/08/15 00:23:45;;;;;;;14.73;10.13;;;;;;;26.35;50.93;101212.41;6123719;23;20029;-81
2023/08/15 00:26:12;;;;;;;11.10;9.40;;;;;;;26.64;51.51;101270.75;6164980;23;20013;-79
2023/08/15 00:28:40;;;;;;;11.88;9.55;;;;;;;26.85;51.46;101309.50;6146766;23;20553;-82
2023/08/15 00:31:06;;;;;;;14.98;10.52;;;;;;;26.97;51.72;101337.63;6133382;23;20021;-82
2023/08/15 00:33:33;;;;;;;13.90;10.63;;;;;;;26.96;51.74;101344.13;6154673;23;20060;-82
2023/08/15 00:36:00;;;;;;;18.92;10.95;;;;;;;26.94;51.78;101348.97;6142259;23;20031;-82
2023/08/15 00:38:27;;;;;;;11.48;9.85;;;;;;;26.73;52.19;101320.31;6168791;23;20321;-81
2023/08/15 00:41:02;;;;;;;16.75;10.65;;;;;;;26.42;52.17;101283.09;6060629;23;20096;-80
2023/08/15 00:43:34;;;;;;;14.82;10.38;;;;;;;26.55;52.25;101296.59;6103261;23;20024;-83
2023/08/15 00:46:07;;;;;;;12.35;9.93;;;;;;;26.88;52.06;101336.28;6154683;23;20024;-79
2023/08/15 00:48:35;;;;;;;14.73;11.27;;;;;;;26.87;52.14;101331.91;6140291;23;20024;-82
2023/08/15 00:51:02;;;;;;;17.27;10.50;;;;;;;26.55;52.05;101288.44;6156316;23;20421;-82
2023/08/15 00:53:32;;;;;;;13.30;10.10;;;;;;;26.59;52.05;101275.22;6155741;23;20025;-80
2023/08/15 00:55:59;;;;;;;20.17;11.10;;;;;;;26.84;52.03;101330.44;6166244;23;20017;-82
2023/08/15 00:58:29;;;;;;;14.32;11.77;;;;;;;26.78;52.52;101309.56;6164408;23;20017;-82
2023/08/15 01:00:56;;;;;;;12.75;10.18;;;;;;;26.92;51.98;101337.50;6177177;23;20449;-82
2023/08/15 01:03:23;;;;;;;15.35;11.07;;;;;;;26.51;52.67;101284.47;6137243;23;20021;-80
2023/08/15 01:05:49;;;;;;;16.45;10.18;;;;;;;26.72;52.92;101328.69;6178356;23;20451;-81
2023/08/15 01:08:16;;;;;;;11.85;10.23;;;;;;;25.66;53.04;101173.53;6137461;23;20017;-81
2023/08/15 01:10:46;;;;;;;12.18;9.90;;;;;;;26.43;53.21;101295.66;6158331;23;20025;-81
2023/08/15 01:13:42;;;;;;;12.48;10.25;;;;;;;26.55;53.75;101329.28;6135284;23;20023;-83
2023/08/15 01:16:15;;;;;;;17.25;10.90;;;;;;;26.48;54.03;101320.31;6124771;23;20025;-81
2023/08/15 01:18:48;;;;;;;21.63;10.80;;;;;;;26.40;53.72;101304.28;6160443;23;20025;-80
2023/08/15 01:21:26;;;;;;;14.25;10.43;;;;;;;26.51;53.59;101316.34;6161906;23;20369;-81
2023/08/15 01:23:55;;;;;;;11.55;10.45;;;;;;;26.54;53.55;101321.34;6156749;23;20472;-83
2023/08/15 01:26:22;;;;;;;11.65;9.77;;;;;;;26.15;53.69;101272.47;6179427;23;20488;-80
2023/08/15 01:28:49;;;;;;;16.52;10.98;;;;;;;26.39;53.81;101319.78;6148731;23;20320;-81
2023/08/15 01:31:32;;;;;;;13.05;10.68;;;;;;;25.98;54.20;101266.78;6178294;23;20406;-82
2023/08/15 01:34:15;;;;;;;13.95;11.20;;;;;;;26.36;54.56;101327.53;6177044;23;20027;-81
2023/08/15 01:36:50;;;;;;;14.38;11.10;;;;;;;26.04;54.37;101272.38;6171719;23;20374;-82
2023/08/15 01:39:22;;;;;;;13.70;10.80;;;;;;;26.33;54.10;101322.56;6178603;23;20027;-82
2023/08/15 01:41:52;;;;;;;13.55;11.05;;;;;;;26.32;54.12;101323.63;6163022;23;20025;-81
2023/08/15 01:44:20;;;;;;;14.88;10.68;;;;;;;26.33;53.26;101300.78;6139223;23;20104;-81
2023/08/15 01:46:47;;;;;;;16.13;9.90;;;;;;;26.37;53.05;101296.56;6164489;23;20017;-81
2023/08/15 01:49:14;;;;;;;14.80;10.75;;;;;;;26.30;53.95;101290.34;6145892;23;20057;-80
2023/08/15 01:51:41;;;;;;;16.20;10.93;;;;;;;26.32;53.95;101299.13;6163077;23;20438;-81
2023/08/15 01:54:12;;;;;;;14.55;10.93;;;;;;;26.06;54.15;101262.94;6176331;23;20469;-82
2023/08/15 01:56:39;;;;;;;13.43;10.65;;;;;;;25.56;53.73;101192.22;6162162;23;20500;-80
2023/08/15 01:59:09;;;;;;;10.68;9.70;;;;;;;26.30;54.06;101317.56;6164194;23;20103;-82
2023/08/15 02:01:35;;;;;;;15.07;9.85;;;;;;;26.21;54.16;101311.56;6160159;23;20028;-81
2023/08/15 02:04:02;;;;;;;20.13;10.65;;;;;;;26.16;54.42;101308.69;6182688;23;20028;-81
2023/08/15 02:06:29;;;;;;;12.90;9.65;;;;;;;26.08;54.46;101296.19;6179603;23;20025;-81
2023/08/15 02:08:56;;;;;;;15.73;10.50;;;;;;;25.90;54.12;101258.91;6154134;23;20448;-82
2023/08/15 02:11:22;;;;;;;15.85;10.05;;;;;;;26.22;54.55;101316.78;6175879;23;20020;-82
2023/08/15 02:13:49;;;;;;;10.75;9.70;;;;;;;26.25;54.41;101309.25;6175065;23;20020;-81
2023/08/15 02:16:17;;;;;;;12.70;10.90;;;;;;;26.22;54.51;101310.53;6151459;23;20044;-81
2023/08/15 02:18:48;;;;;;;12.73;10.70;;;;;;;25.50;54.64;101198.53;6166392;23;20025;-82
2023/08/15 02:21:14;;;;;;;14.90;10.68;;;;;;;26.05;54.87;101299.38;6148301;23;20024;-83
2023/08/15 02:23:41;;;;;;;12.68;10.38;;;;;;;25.58;55.00;101223.56;6144881;23;20475;-82
2023/08/15 02:26:08;;;;;;;15.93;10.65;;;;;;;25.90;54.98;101277.09;6165008;23;20021;-81
2023/08/15 02:28:35;;;;;;;11.98;10.18;;;;;;;26.04;54.97;101305.03;6146008;23;20099;-80
2023/08/15 02:31:05;;;;;;;12.98;10.43;;;;;;;26.00;54.79;101291.03;6132392;23;20483;-82
2023/08/15 02:33:32;;;;;;;25.30;10.20;;;;;;;25.87;55.38;101280.25;6168981;23;20104;-82
2023/08/15 02:36:07;;;;;;;12.13;10.20;;;;;;;25.94;55.95;101305.50;6163204;23;20112;-82
2023/08/15 02:38:38;;;;;;;13.40;10.73;;;;;;;25.54;55.92;101243.25;6147258;23;20269;-82
2023/08/15 02:41:04;;;;;;;15.80;10.70;;;;;;;25.79;55.89;101284.88;6154846;23;20103;-81
2023/08/15 02:43:31;;;;;;;14.65;10.20;;;;;;;25.89;55.73;101289.03;6177720;23;20259;-81
2023/08/15 02:45:58;;;;;;;18.17;11.30;;;;;;;25.65;55.79;101264.28;6121428;23;20391;-80
2023/08/15 02:48:25;;;;;;;14.02;10.60;;;;;;;25.87;55.94;101304.72;6132294;23;20464;-81
2023/08/15 02:50:52;;;;;;;12.02;10.73;;;;;;;25.77;56.50;101297.84;6127361;23;20499;-83
2023/08/15 02:53:18;;;;;;;11.73;10.55;;;;;;;25.74;56.41;101297.47;6160969;23;20302;-81
2023/08/15 02:55:49;;;;;;;11.65;10.50;;;;;;;25.72;56.74;101296.88;6162055;23;20031;-81
2023/08/15 02:58:16;;;;;;;11.30;10.10;;;;;;;25.56;56.28;101273.78;6175749;23;20079;-81
2023/08/15 03:00:44;;;;;;;13.13;10.45;;;;;;;25.67;56.61;101289.38;6149950;23;20402;-82
2023/08/15 03:03:11;;;;;;;15.25;11.07;;;;;;;25.31;56.52;101241.91;6177522;23;20022;-82
2023/08/15 03:05:38;;;;;;;15.90;9.73;;;;;;;25.58;56.37;101271.66;6171743;23;20112;-82
2023/08/15 03:08:05;;;;;;;12.30;10.77;;;;;;;25.41;56.12;101246.03;6164669;23;20124;-83
2023/08/15 03:10:35;;;;;;;11.77;10.52;;;;;;;25.57;55.97;101261.84;6167530;23;20519;-81
2023/08/15 03:13:03;;;;;;;23.13;10.07;;;;;;;25.64;55.66;101280.81;6157650;23;20444;-82
2023/08/15 03:15:30;;;;;;;14.02;10.40;;;;;;;25.50;55.83;101263.75;6164111;23;20020;-82
2023/08/15 03:17:57;;;;;;;21.80;10.88;;;;;;;25.43;55.35;101242.06;6140118;23;20020;-79
2023/08/15 03:20:24;;;;;;;11.27;9.88;;;;;;;25.72;55.12;101294.97;6172577;23;20039;-81
2023/08/15 03:22:51;;;;;;;18.73;10.95;;;;;;;24.89;55.24;101165.47;6163184;23;20290;-81
2023/08/15 03:25:18;;;;;;;14.32;10.88;;;;;;;25.68;54.89;101288.31;6162860;23;20017;-82
2023/08/15 03:27:48;;;;;;;17.02;10.50;;;;;;;25.63;55.04;101285.41;6175604;23;20306;-82
2023/08/15 03:30:15;;;;;;;13.57;10.05;;;;;;;25.23;55.86;101253.06;6160114;23;20326;-82
2023/08/15 03:32:42;;;;;;;16.70;11.10;;;;;;;25.40;55.81;101299.56;6145131;23;20113;-81
2023/08/15 03:35:09;;;;;;;17.30;11.93;;;;;;;25.27;55.81;101281.47;6147724;23;20461;-81
2023/08/15 03:37:38;;;;;;;15.85;11.73;;;;;;;25.28;56.22;101299.44;6146538;23;20213;-82
2023/08/15 03:40:08;;;;;;;25.92;11.70;;;;;;;25.22;56.52;101289.44;6162139;23;20017;-82
2023/08/15 03:42:35;;;;;;;14.57;10.93;;;;;;;25.17;56.71;101300.09;6170976;23;20024;-81
2023/08/15 03:45:02;;;;;;;17.23;11.15;;;;;;;24.83;56.67;101253.22;6141997;23;20360;-80
2023/08/15 03:47:36;;;;;;;13.50;11.25;;;;;;;25.07;56.99;101286.13;6173941;23;20334;-83
2023/08/15 03:50:10;;;;;;;12.70;11.35;;;;;;;25.09;56.90;101294.88;6142635;23;20031;-82
2023/08/15 03:52:49;;;;;;;15.02;10.82;;;;;;;24.93;56.90;101272.59;6151155;23;20459;-83
2023/08/15 03:55:17;;;;;;;15.23;11.70;;;;;;;25.01;56.90;101297.88;6145457;23;20448;-79
2023/08/15 03:57:45;;;;;;;13.52;10.95;;;;;;;24.89;57.31;101286.84;6099164;23;20385;-81
2023/08/15 04:00:13;;;;;;;15.43;11.68;;;;;;;24.93;57.46;101291.63;6174031;23;20016;-82
2023/08/15 04:02:40;;;;;;;13.65;10.55;;;;;;;24.97;57.22;101299.34;6169350;23;20266;-81
2023/08/15 04:05:07;;;;;;;15.25;11.88;;;;;;;24.79;57.24;101287.28;6151491;23;20032;-81
2023/08/15 04:07:34;;;;;;;15.68;10.90;;;;;;;24.78;57.51;101280.16;6160997;23;20091;-81
2023/08/15 04:10:04;;;;;;;16.15;11.32;;;;;;;24.87;57.67;101297.91;6173996;23;20025;-79
2023/08/15 04:12:33;;;;;;;24.38;10.18;;;;;;;24.52;57.67;101245.81;6146079;23;20047;-82
2023/08/15 04:15:00;;;;;;;15.52;11.82;;;;;;;24.86;57.58;101301.66;6164282;23;20074;-81
2023/08/15 04:17:27;;;;;;;17.13;10.32;;;;;;;24.71;57.41;101282.06;6161524;23;20048;-81
2023/08/15 04:19:54;;;;;;;13.70;10.70;;;;;;;24.70;57.85;101299.41;6144690;23;20048;-82
2023/08/15 04:22:20;;;;;;;15.05;10.98;;;;;;;24.30;57.93;101237.06;6155746;23;20032;-81
2023/08/15 04:24:47;;;;;;;17.88;11.40;;;;;;;24.75;58.16;101315.91;6137495;23;20476;-81
2023/08/15 04:27:14;;;;;;;13.15;11.63;;;;;;;24.53;58.38;101280.03;6173693;23;20021;-81
2023/08/15 04:29:44;;;;;;;17.45;11.82;;;;;;;24.63;58.16;101290.47;6140517;23;20322;-81
2023/08/15 04:32:11;;;;;;;15.75;11.50;;;;;;;24.83;58.84;101317.53;6163093;23;20038;-81
2023/08/15 04:34:38;;;;;;;18.00;11.65;;;;;;;24.77;58.44;101321.94;6124129;23;20063;-82
2023/08/15 04:37:05;;;;;;;19.05;12.30;;;;;;;24.41;58.66;101258.09;6168584;23;20020;-79
2023/08/15 04:39:34;;;;;;;14.43;11.30;;;;;;;24.85;58.69;101321.72;6104805;23;20024;-82
2023/08/15 04:42:04;;;;;;;13.77;10.95;;;;;;;24.51;58.93;101261.25;6147738;23;20021;-80
2023/08/15 04:44:35;;;;;;;19.92;11.20;;;;;;;24.93;58.66;101318.78;6146634;23;20021;-82
2023/08/15 04:47:02;;;;;;;13.68;12.15;;;;;;;24.89;58.38;101298.53;6170122;23;20307;-81
2023/08/15 04:49:29;;;;;;;16.63;11.55;;;;;;;24.91;58.54;101314.63;6168718;23;20522;-81
2023/08/15 04:51:56;;;;;;;20.90;11.32;;;;;;;24.93;58.92;101324.22;6147354;23;20013;-80
2023/08/15 04:54:23;;;;;;;13.30;11.85;;;;;;;24.81;59.16;101298.78;6162373;23;20023;-82
2023/08/15 04:56:49;;;;;;;18.75;12.25;;;;;;;24.87;59.58;101313.38;6148272;23;20020;-81
2023/08/15 04:59:17;;;;;;;12.88;11.50;;;;;;;24.80;59.31;101294.38;6152532;23;20370;-83
2023/08/15 05:01:44;;;;;;;13.70;11.23;;;;;;;24.95;59.21;101316.69;6151931;23;20023;-81
2023/08/15 05:04:11;;;;;;;17.50;12.18;;;;;;;24.52;59.28;101251.25;6156286;23;20456;-80
2023/08/15 05:06:38;;;;;;;14.00;11.52;;;;;;;25.03;59.58;101331.09;6177480;23;20020;-81
2023/08/15 05:09:05;;;;;;;19.17;12.05;;;;;;;25.10;58.88;101323.75;6181130;23;20059;-80
2023/08/15 05:11:32;;;;;;;17.67;11.48;;;;;;;24.92;59.23;101300.78;6130625;23;20523;-80
2023/08/15 05:14:02;;;;;;;18.38;12.35;;;;;;;24.18;59.69;101173.66;6180503;23;20759;-82
2023/08/15 05:16:29;;;;;;;20.20;12.23;;;;;;;25.06;59.71;101317.88;6119669;23;20017;-80
2023/08/15 05:18:56;;;;;;;16.40;11.25;;;;;;;24.73;59.17;101252.81;6145869;23;20043;-82
2023/08/15 05:21:23;;;;;;;16.63;11.70;;;;;;;25.24;59.14;101330.78;6177290;23;20017;-81
2023/08/15 05:23:50;;;;;;;16.27;11.68;;;;;;;25.05;59.32;101288.22;6162953;23;20044;-81
2023/08/15 05:26:17;;;;;;;13.13;11.30;;;;;;;25.24;58.92;101311.78;6149707;23;20075;-80
2023/08/15 05:28:44;;;;;;;18.67;13.15;;;;;;;24.80;59.44;101225.66;6177804;23;20025;-82
2023/08/15 05:31:14;;;;;;;17.38;11.80;;;;;;;25.24;59.17;101297.34;6145236;23;20295;-82
2023/08/15 05:33:40;;;;;;;15.13;11.40;;;;;;;25.43;59.53;101333.63;6154423;23;20025;-80
2023/08/15 05:36:07;;;;;;;20.13;11.38;;;;;;;25.08;59.22;101271.50;6130259;23;20236;-82
2023/08/15 05:38:36;;;;;;;17.95;12.52;;;;;;;25.53;58.46;101340.25;6169967;23;20344;-81
2023/08/15 05:41:06;;;;;;;20.50;11.73;;;;;;;25.65;58.18;101348.56;6183208;23;20020;-80
2023/08/15 05:43:33;;;;;;;16.35;11.60;;;;;;;24.80;58.00;101204.75;6170225;23;20031;-83
2023/08/15 05:46:02;;;;;;;14.07;11.68;;;;;;;25.59;57.53;101327.69;6166499;23;20373;-81
2023/08/15 05:48:30;;;;;;;15.13;11.70;;;;;;;25.59;57.39;101311.38;6166237;23;20792;-81
2023/08/15 05:50:57;;;;;;;24.80;12.40;;;;;;;25.24;57.40;101253.88;6165287;23;20043;-82
2023/08/15 05:53:24;;;;;;;25.10;13.05;;;;;;;25.43;57.81;101276.56;6183010;23;20457;-81
2023/08/15 05:55:51;;;;;;;18.25;12.43;;;;;;;25.68;57.11;101303.78;6154140;23;20184;-82
2023/08/15 05:58:18;;;;;;;17.27;12.75;;;;;;;25.50;56.71;101258.31;6185752;23;20020;-80
2023/08/15 06:00:47;;;;;;;24.50;14.20;;;;;;;25.95;56.96;101310.75;6183969;23;20021;-82
2023/08/15 06:03:15;;;;;;;16.73;13.50;;;;;;;25.75;56.75;101271.94;6156553;23;20036;-80
2023/08/15 06:05:58;;;;;;;17.92;13.55;;;;;;;26.27;56.49;101348.78;6149369;23;20409;-81
2023/08/15 06:08:25;;;;;;;16.38;13.80;;;;;;;26.20;56.61;101335.22;6171478;23;20028;-83
2023/08/15 06:10:52;;;;;;;17.10;14.63;;;;;;;25.92;56.97;101294.03;6188408;23;20029;-81
2023/08/15 06:13:19;;;;;;;18.15;13.88;;;;;;;26.26;56.60;101336.22;6141015;23;20399;-80
2023/08/15 06:15:45;;;;;;;17.73;14.18;;;;;;;26.31;56.81;101338.28;6152136;23;20023;-81
2023/08/15 06:18:13;;;;;;;25.42;14.77;;;;;;;26.42;57.14;101356.59;6148017;23;20519;-82
2023/08/15 06:20:42;;;;;;;19.65;14.30;;;;;;;26.49;56.28;101360.09;6173645;23;20420;-81
2023/08/15 06:23:14;;;;;;;20.27;13.50;;;;;;;26.49;56.25;101354.66;6196939;23;20047;-81
2023/08/15 06:25:43;;;;;;;22.17;14.88;;;;;;;26.61;56.49;101368.41;6169361;23;20185;-82
2023/08/15 06:28:10;;;;;;;21.05;13.98;;;;;;;26.54;56.52;101341.22;6169774;23;20380;-81
2023/08/15 06:30:41;;;;;;;17.63;14.20;;;;;;;26.66;56.00;101344.06;6142143;23;20052;-82
2023/08/15 06:33:08;;;;;;;18.35;12.90;;;;;;;26.76;55.93;101348.97;6174140;23;20108;-82
2023/08/15 06:35:35;;;;;;;14.73;12.88;;;;;;;26.89;55.61;101351.53;6140249;23;20028;-82
2023/08/15 06:38:04;;;;;;;15.30;12.95;;;;;;;26.78;54.81;101319.63;6180433;23;20017;-81
2023/08/15 06:40:31;;;;;;;13.40;10.77;;;;;;;27.00;53.79;101347.25;6155625;23;20052;-81
2023/08/15 06:42:58;;;;;;;20.95;10.63;;;;;;;27.04;53.33;101357.47;6161934;23;20075;-81
2023/08/15 06:45:25;;;;;;;13.57;10.30;;;;;;;26.98;52.94;101336.56;6194010;23;20021;-81
2023/08/15 06:47:52;;;;;;;16.60;10.80;;;;;;;26.96;52.87;101322.34;6151609;23;20380;-81
2023/08/15 06:50:19;;;;;;;12.73;10.20;;;;;;;27.26;52.96;101365.22;6161432;23;20051;-83
2023/08/15 06:52:46;;;;;;;17.45;10.48;;;;;;;27.28;53.32;101373.97;6138197;23;20064;-82
2023/08/15 06:55:13;;;;;;;12.95;9.90;;;;;;;27.23;53.38;101350.13;6162432;23;20021;-82
2023/08/15 06:57:39;;;;;;;12.73;9.93;;;;;;;27.17;53.05;101336.56;6154068;23;20516;-80
2023/08/15 07:00:09;;;;;;;13.10;10.80;;;;;;;27.26;53.38;101343.41;6158185;23;20408;-81
2023/08/15 07:02:36;;;;;;;14.73;11.15;;;;;;;27.50;52.92;101371.56;6172628;23;20372;-81
2023/08/15 07:05:07;;;;;;;13.27;10.65;;;;;;;26.59;52.01;101229.75;6146626;23;20028;-80
2023/08/15 07:07:37;;;;;;;15.13;11.68;;;;;;;27.17;52.76;101328.38;6177547;23;20076;-79
2023/08/15 07:10:06;;;;;;;13.25;10.50;;;;;;;27.55;52.31;101373.63;6169357;23;20031;-79
2023/08/15 07:12:34;;;;;;;12.88;10.35;;;;;;;27.56;52.00;101361.66;6178661;23;20028;-80
2023/08/15 07:15:01;;;;;;;10.85;9.75;;;;;;;27.62;52.16;101371.63;6175571;23;20021;-80
2023/08/15 07:17:31;;;;;;;14.93;10.18;;;;;;;27.55;51.88;101362.72;6169988;23;20016;-81
2023/08/15 07:19:58;;;;;;;18.70;10.65;;;;;;;27.73;51.65;101380.94;6140233;23;20153;-79
2023/08/15 07:22:28;;;;;;;15.23;10.57;;;;;;;27.60;51.46;101362.84;6146844;23;20020;-81
2023/08/15 07:25:03;;;;;;;17.08;9.98;;;;;;;27.77;51.90;101391.16;6173600;23;20356;-80
2023/08/15 07:27:31;;;;;;;11.32;9.52;;;;;;;27.68;50.86;101348.91;6175624;23;20137;-79
2023/08/15 07:29:58;;;;;;;19.50;10.82;;;;;;;27.78;51.52;101387.34;6172842;23;20024;-79
2023/08/15 07:32:28;;;;;;;10.18;9.15;;;;;;;27.77;51.51;101376.66;6174579;23;20029;-81
2023/08/15 07:34:55;;;;;;;11.75;9.88;;;;;;;27.84;51.15;101377.44;6145819;23;20048;-80
2023/08/15 07:37:22;;;;;;;11.45;10.27;;;;;;;27.86;51.20;101387.03;6164650;23;20275;-79
2023/08/15 07:40:07;;;;;;;12.43;10.10;;;;;;;27.67;50.98;101353.53;6179821;23;20017;-79
2023/08/15 07:42:37;;;;;;;10.30;8.90;;;;;;;27.77;50.84;101369.34;6156059;23;20164;-80
2023/08/15 07:45:05;;;;;;;13.52;9.80;;;;;;;27.74;50.56;101349.84;6158609;23;20013;-80
2023/08/15 07:47:34;;;;;;;12.20;9.48;;;;;;;27.92;50.88;101397.03;6162014;23;20016;-80
2023/08/15 07:50:16;;;;;;;11.70;10.50;;;;;;;27.69;51.54;101370.47;6144370;23;20032;-79
2023/08/15 07:52:47;;;;;;;13.35;10.23;;;;;;;27.83;51.29;101392.97;6148124;23;20449;-80
2023/08/15 07:55:14;;;;;;;;;;;;;;;27.86;52.19;101392.50;6159234;23;20756;-79
2023/08/15 07:57:45;;;;;;;12.73;10.25;;;;;;;27.97;51.77;101392.78;6160589;23;19943;-81
2023/08/15 08:00:13;;;;;;;13.00;10.75;;;;;;;27.97;51.86;101373.69;6150592;23;20485;-81
2023/08/15 08:02:42;;;;;;;12.75;11.43;;;;;;;27.98;51.32;101372.63;6177844;23;20157;-79
2023/08/15 08:05:12;;;;;;;12.35;11.15;;;;;;;28.11;52.14;101397.81;6153027;23;20028;-80
2023/08/15 08:07:44;;;;;;;14.20;12.10;;;;;;;27.99;51.63;101375.13;6164685;23;20110;-79
2023/08/15 08:10:11;;;;;;;17.05;12.10;;;;;;;28.11;51.74;101394.25;6180198;23;20103;-81
2023/08/15 08:12:38;;;;;;;12.38;11.07;;;;;;;27.60;51.44;101308.31;6150084;23;20352;-82
2023/08/15 08:15:05;;;;;;;14.00;11.35;;;;;;;28.20;51.57;101392.81;6165315;23;20020;-82
2023/08/15 08:17:36;;;;;;;;;;;;;;;28.14;51.95;101391.06;6187596;23;20062;-81
2023/08/15 08:20:12;;;;;;;20.05;12.18;;;;;;;27.85;51.98;101336.28;6147503;23;19924;-80
2023/08/15 08:22:39;;;;;;;15.52;11.70;;;;;;;28.15;51.36;101368.13;6175354;23;20453;-80
2023/08/15 08:25:19;;;;;;;15.45;11.63;;;;;;;28.30;51.57;101368.53;6154572;23;20024;-82
2023/08/15 08:27:46;;;;;;;13.30;11.73;;;;;;;28.53;51.41;101394.22;6193322;23;20504;-81
2023/08/15 08:30:16;;;;;;;20.15;11.68;;;;;;;28.15;49.88;101294.44;6175417;23;20099;-80
2023/08/15 08:32:43;;;;;;;17.48;11.20;;;;;;;28.13;49.63;101300.16;6179802;23;20318;-82
2023/08/15 08:35:11;;;;;;;13.10;11.80;;;;;;;28.52;49.17;101346.09;6193729;23;20457;-80
2023/08/15 08:37:38;;;;;;;15.27;11.77;;;;;;;28.20;48.63;101294.56;6165288;23;20256;-81
2023/08/15 08:40:07;;;;;;;13.70;11.05;;;;;;;28.90;48.72;101385.75;6134093;23;20325;-80
2023/08/15 08:42:34;;;;;;;13.30;11.13;;;;;;;28.74;47.58;101360.84;6158686;23;20465;-81
2023/08/15 08:45:02;;;;;;;12.27;11.00;;;;;;;28.81;47.82;101343.47;6189120;23;20024;-82
2023/08/15 08:47:36;;;;;;;12.85;11.25;;;;;;;29.12;47.66;101381.34;6151802;23;20492;-80
2023/08/15 08:50:06;;;;;;;12.57;10.98;;;;;;;29.26;46.57;101381.09;6147113;23;20024;-81
2023/08/15 08:52:35;;;;;;;18.38;11.27;;;;;;;29.10;47.25;101350.69;6165683;23;20693;-80
2023/08/15 08:55:05;;;;;;;15.18;12.23;;;;;;;29.32;48.16;101385.56;6161622;23;20026;-81
2023/08/15 08:57:34;;;;;;;12.35;11.05;;;;;;;29.47;47.98;101376.84;6180663;23;20016;-82
2023/08/15 09:00:01;;;;;;;18.88;12.10;;;;;;;29.50;47.95;101379.13;6179379;23;20095;-81
2023/08/15 09:02:28;;;;;;;12.05;10.77;;;;;;;29.57;47.39;101369.69;6147114;23;20024;-81
2023/08/15 09:04:55;;;;;;;17.52;11.73;;;;;;;29.54;45.98;101348.28;6182708;23;20265;-81
2023/08/15 09:07:24;;;;;;;15.20;10.73;;;;;;;29.67;45.29;101349.91;6144464;23;20456;-80
2023/08/15 09:09:51;;;;;;;14.10;9.93;;;;;;;29.42;44.47;101301.03;6185033;23;20017;-81
2023/08/15 09:12:40;;;;;;;13.63;9.82;;;;;;;29.75;42.75;101337.75;6185749;23;20017;-82
2023/08/15 09:15:10;;;;;;;11.73;10.52;;;;;;;29.84;42.92;101322.56;6146138;23;20028;-81
2023/08/15 09:17:37;;;;;;;12.55;11.23;;;;;;;30.17;43.63;101349.16;6188355;23;20021;-81
2023/08/15 09:20:17;;;;;;;14.38;10.70;;;;;;;30.19;44.29;101340.66;6182308;23;20768;-82
2023/08/15 09:22:46;;;;;;;16.13;11.07;;;;;;;30.11;45.40;101313.72;6134012;23;20463;-82
2023/08/15 09:25:19;;;;;;;13.90;11.07;;;;;;;30.04;45.34;101287.31;6146629;23;20507;-81
2023/08/15 09:27:47;;;;;;;14.48;11.23;;;;;;;29.81;45.14;101243.72;6131267;23;20372;-81
2023/08/15 09:30:15;;;;;;;15.88;11.80;;;;;;;30.44;45.23;101327.41;6186157;23;20379;-82
2023/08/15 09:32:44;;;;;;;12.05;10.77;;;;;;;30.71;43.54;101340.38;6175702;23;20476;-82
2023/08/15 09:35:16;;;;;;;12.60;11.10;;;;;;;30.66;42.38;101318.41;6171376;23;20384;-82
2023/08/15 09:37:45;;;;;;;10.65;9.52;;;;;;;30.86;42.35;101321.41;6186762;23;20017;-81
2023/08/15 09:40:19;;;;;;;13.93;10.57;;;;;;;31.11;42.38;101339.25;6153596;23;20025;-81
2023/08/15 09:42:51;;;;;;;13.32;11.00;;;;;;;31.31;40.48;101333.19;6161115;23;20487;-82
2023/08/15 09:45:18;;;;;;;12.00;10.63;;;;;;;31.43;40.55;101330.31;6186472;23;20028;-82
2023/08/15 09:47:46;;;;;;;13.80;11.18;;;;;;;31.40;39.62;101300.66;6133017;23;20016;-83
2023/08/15 09:50:15;;;;;;;11.95;10.68;;;;;;;31.52;40.35;101312.31;6160364;23;20453;-82
2023/08/15 09:52:45;;;;;;;14.20;10.05;;;;;;;31.48;40.77;101297.44;6152390;23;20828;-82
2023/08/15 09:55:19;;;;;;;13.80;12.05;;;;;;;31.86;40.28;101323.88;6165815;23;20016;-80
2023/08/15 09:57:46;;;;;;;15.65;10.93;;;;;;;31.96;40.54;101322.34;6130235;23;20100;-83
2023/08/15 10:00:17;;;;;;;12.77;11.27;;;;;;;31.96;40.52;101306.69;6183874;23;20020;-82
2023/08/15 10:03:10;;;;;;;11.50;10.45;;;;;;;32.41;38.41;101316.34;6167168;23;20056;-82
2023/08/15 10:05:40;;;;;;;16.30;11.77;;;;;;;32.54;39.45;101312.34;6158350;23;20670;-81
2023/08/15 10:08:09;;;;;;;13.52;10.95;;;;;;;32.62;38.80;101314.56;6157629;23;20553;-80
2023/08/15 10:10:41;;;;;;;12.63;10.45;;;;;;;32.68;38.05;101301.69;6163088;23;20353;-83
2023/08/15 10:13:09;;;;;;;13.82;11.57;;;;;;;32.78;38.21;101297.06;6160878;23;20020;-82
2023/08/15 10:15:36;;;;;;;16.55;10.80;;;;;;;32.67;38.24;101259.59;6173931;23;20025;-82
2023/08/15 10:18:04;;;;;;;11.50;10.13;;;;;;;32.82;36.91;101278.13;6173549;23;20225;-81
2023/08/15 10:20:37;;;;;;;14.93;12.00;;;;;;;32.94;36.95;101294.34;6173192;23;20024;-82
2023/08/15 10:23:09;;;;;;;11.98;10.77;;;;;;;32.64;37.41;101235.41;6166736;23;20476;-82
2023/08/15 10:25:39;;;;;;;11.80;10.65;;;;;;;33.12;37.33;101301.34;6177795;23;20099;-82
2023/08/15 10:28:09;;;;;;;10.98;9.90;;;;;;;33.26;36.77;101290.66;6166353;23;20409;-82
2023/08/15 10:30:47;;;;;;;11.40;10.27;;;;;;;33.51;35.58;101284.34;6152317;23;20021;-80
2023/08/15 10:33:21;;;;;;;10.07;9.07;;;;;;;33.47;36.23;101236.44;6148549;23;20036;-83
2023/08/15 10:35:54;;;;;;;12.55;10.18;;;;;;;34.02;35.27;101292.63;6170871;23;20024;-82
2023/08/15 10:38:25;;;;;;;12.48;10.93;;;;;;;34.08;35.21;101280.53;6140837;23;20091;-82
2023/08/15 10:40:53;;;;;;;;;;;;;;;34.13;34.74;101276.94;6150376;23;20044;-82
2023/08/15 10:43:25;;;;;;;11.90;10.70;;;;;;;34.18;34.78;101277.78;6174220;23;19995;-82
2023/08/15 10:45:52;;;;;;;12.57;10.30;;;;;;;34.20;34.77;101267.31;6175624;23;20340;-81
2023/08/15 10:48:42;;;;;;;11.82;10.52;;;;;;;34.28;34.14;101265.91;6146322;23;20336;-81
2023/08/15 10:51:32;;;;;;;11.73;9.88;;;;;;;34.42;33.95;101272.47;6150379;23;20024;-81
2023/08/15 10:54:04;;;;;;;10.93;9.45;;;;;;;33.81;33.88;101143.97;6170535;23;20023;-80
2023/08/15 10:56:38;;;;;;;12.93;10.10;;;;;;;34.73;34.49;101272.38;6177727;23;20090;-82
2023/08/15 10:59:11;;;;;;;11.77;9.73;;;;;;;34.83;33.98;101271.50;6169735;23;20048;-82
2023/08/15 11:01:46;;;;;;;10.55;9.45;;;;;;;35.04;33.62;101262.00;6172930;23;20366;-82
2023/08/15 11:04:18;;;;;;;12.73;11.10;;;;;;;34.94;33.39;101219.88;6174194;23;20024;-82
2023/08/15 11:06:52;;;;;;;12.57;9.80;;;;;;;35.18;33.02;101231.88;6185363;23;20338;-82
2023/08/15 11:09:28;;;;;;;11.35;10.27;;;;;;;35.19;32.48;101216.13;6149761;23;20021;-82
2023/08/15 11:12:09;;;;;;;10.73;9.65;;;;;;;35.43;32.65;101241.06;6166099;23;20028;-82
2023/08/15 11:14:37;;;;;;;11.48;10.18;;;;;;;35.69;33.27;101250.00;6140348;23;20125;-82
2023/08/15 11:17:05;;;;;;;12.27;10.13;;;;;;;35.88;32.32;101256.44;6165767;23;20265;-80
2023/08/15 11:19:37;;;;;;;10.43;9.50;;;;;;;35.77;33.01;101216.22;6157136;23;20097;-82
2023/08/15 11:22:07;;;;;;;13.10;9.95;;;;;;;36.03;32.29;101246.38;6132210;23;20016;-82